sensor_id;sensor_type;location;lat;lon;timestamp;P1;durP1;ratioP1;P2;durP2;ratioP2
14116;SDS011;7137;51.436;6.544;2023-03-01T00:01:48;8.17;;;5.80;;
14116;SDS011;7137;51.436;6.544;2023-03-01T00:04:49;8.40;;;6.23;;
14116;SDS011;7137;51.436;6.544;2023-03-01T00:07:52;9.47;;;6.30;;
14116;SDS011;7137;51.436;6.544;2023-03-01T00:11:01;9.50;;;6.63;;
14116;SDS011;7137;51.436;6.544;2023-03-01T00:14:04;8.57;;;6.00;;
14116;SDS011;7137;51.436;6.544;2023-03-01T00:17:06;7.70;;;6.23;;
14116;SDS011;7137;51.436;6.544;2023-03-01T00:20:08;7.40;;;6.17;;
14116;SDS011;7137;51.436;6.544;2023-03-01T00:23:11;9.00;;;6.70;;
14116;SDS011;7137;51.436;6.544;2023-03-01T00:26:14;10.53;;;6.67;;
14116;SDS011;7137;51.436;6.544;2023-03-01T00:29:16;8.03;;;6.40;;
14116;SDS011;7137;51.436;6.544;2023-03-01T00:32:18;8.07;;;6.13;;
14116;SDS011;7137;51.436;6.544;2023-03-01T00:35:19;9.77;;;6.50;;
14116;SDS011;7137;51.436;6.544;2023-03-01T00:38:22;7.70;;;6.60;;
14116;SDS011;7137;51.436;6.544;2023-03-01T00:41:25;9.17;;;6.80;;
14116;SDS011;7137;51.436;6.544;2023-03-01T00:44:27;9.33;;;6.83;;
14116;SDS011;7137;51.436;6.544;2023-03-01T00:47:29;9.77;;;6.90;;
14116;SDS011;7137;51.436;6.544;2023-03-01T00:50:30;8.30;;;6.43;;
14116;SDS011;7137;51.436;6.544;2023-03-01T00:53:32;10.83;;;7.07;;
14116;SDS011;7137;51.436;6.544;2023-03-01T00:56:35;8.70;;;7.53;;
14116;SDS011;7137;51.436;6.544;2023-03-01T00:59:36;9.77;;;7.20;;
14116;SDS011;7137;51.436;6.544;2023-03-01T01:02:38;11.10;;;6.90;;
14116;SDS011;7137;51.436;6.544;2023-03-01T01:05:39;9.83;;;7.27;;
14116;SDS011;7137;51.436;6.544;2023-03-01T01:08:41;10.43;;;7.50;;
14116;SDS011;7137;51.436;6.544;2023-03-01T01:11:44;8.57;;;6.53;;
14116;SDS011;7137;51.436;6.544;2023-03-01T01:14:46;8.33;;;6.90;;
14116;SDS011;7137;51.436;6.544;2023-03-01T01:17:48;10.07;;;6.90;;
14116;SDS011;7137;51.436;6.544;2023-03-01T01:20:49;7.80;;;6.60;;
14116;SDS011;7137;51.436;6.544;2023-03-01T01:23:51;10.33;;;7.20;;
14116;SDS011;7137;51.436;6.544;2023-03-01T01:26:54;8.93;;;6.83;;
14116;SDS011;7137;51.436;6.544;2023-03-01T01:29:56;9.67;;;6.60;;
14116;SDS011;7137;51.436;6.544;2023-03-01T01:32:58;10.57;;;7.07;;
14116;SDS011;7137;51.436;6.544;2023-03-01T01:35:59;8.90;;;6.77;;
14116;SDS011;7137;51.436;6.544;2023-03-01T01:39:01;8.53;;;6.40;;
14116;SDS011;7137;51.436;6.544;2023-03-01T01:42:05;8.63;;;6.30;;
14116;SDS011;7137;51.436;6.544;2023-03-01T01:48:34;9.00;;;6.73;;
14116;SDS011;7137;51.436;6.544;2023-03-01T01:51:42;9.53;;;6.40;;
14116;SDS011;7137;51.436;6.544;2023-03-01T01:54:50;8.97;;;6.57;;
14116;SDS011;7137;51.436;6.544;2023-03-01T01:57:58;9.73;;;7.20;;
14116;SDS011;7137;51.436;6.544;2023-03-01T02:01:03;8.83;;;6.60;;
14116;SDS011;7137;51.436;6.544;2023-03-01T02:04:05;8.30;;;6.80;;
14116;SDS011;7137;51.436;6.544;2023-03-01T02:07:09;9.03;;;7.17;;
14116;SDS011;7137;51.436;6.544;2023-03-01T02:10:15;9.87;;;6.97;;
14116;SDS011;7137;51.436;6.544;2023-03-01T02:13:19;10.77;;;7.33;;
14116;SDS011;7137;51.436;6.544;2023-03-01T02:16:21;9.37;;;6.57;;
14116;SDS011;7137;51.436;6.544;2023-03-01T02:19:26;10.50;;;6.80;;
14116;SDS011;7137;51.436;6.544;2023-03-01T02:22:40;9.67;;;6.37;;
14116;SDS011;7137;51.436;6.544;2023-03-01T02:25:49;9.13;;;6.70;;
14116;SDS011;7137;51.436;6.544;2023-03-01T02:28:58;8.43;;;6.30;;
14116;SDS011;7137;51.436;6.544;2023-03-01T02:32:00;8.80;;;6.80;;
14116;SDS011;7137;51.436;6.544;2023-03-01T02:35:04;9.20;;;6.70;;
14116;SDS011;7137;51.436;6.544;2023-03-01T02:38:07;7.13;;;6.20;;
14116;SDS011;7137;51.436;6.544;2023-03-01T02:41:10;8.47;;;6.13;;
14116;SDS011;7137;51.436;6.544;2023-03-01T02:44:16;9.50;;;6.50;;
14116;SDS011;7137;51.436;6.544;2023-03-01T02:47:17;10.63;;;6.83;;
14116;SDS011;7137;51.436;6.544;2023-03-01T02:50:22;10.30;;;6.90;;
14116;SDS011;7137;51.436;6.544;2023-03-01T02:53:48;10.73;;;6.63;;
14116;SDS011;7137;51.436;6.544;2023-03-01T02:57:00;9.53;;;6.17;;
14116;SDS011;7137;51.436;6.544;2023-03-01T03:00:04;10.07;;;6.83;;
14116;SDS011;7137;51.436;6.544;2023-03-01T03:03:08;9.77;;;6.83;;
14116;SDS011;7137;51.436;6.544;2023-03-01T03:06:10;11.20;;;7.40;;
14116;SDS011;7137;51.436;6.544;2023-03-01T03:09:13;8.57;;;6.70;;
14116;SDS011;7137;51.436;6.544;2023-03-01T03:12:15;9.67;;;7.40;;
14116;SDS011;7137;51.436;6.544;2023-03-01T03:15:18;9.33;;;7.10;;
14116;SDS011;7137;51.436;6.544;2023-03-01T03:18:20;9.43;;;6.83;;
14116;SDS011;7137;51.436;6.544;2023-03-01T03:21:25;11.80;;;7.67;;
14116;SDS011;7137;51.436;6.544;2023-03-01T03:24:27;11.70;;;7.40;;
14116;SDS011;7137;51.436;6.544;2023-03-01T03:27:38;9.33;;;6.60;;
14116;SDS011;7137;51.436;6.544;2023-03-01T03:30:41;8.57;;;6.40;;
14116;SDS011;7137;51.436;6.544;2023-03-01T03:33:43;9.67;;;7.20;;
14116;SDS011;7137;51.436;6.544;2023-03-01T03:36:54;9.13;;;6.63;;
14116;SDS011;7137;51.436;6.544;2023-03-01T03:39:59;9.17;;;6.90;;
14116;SDS011;7137;51.436;6.544;2023-03-01T03:43:01;9.33;;;6.30;;
14116;SDS011;7137;51.436;6.544;2023-03-01T03:46:03;9.27;;;7.30;;
14116;SDS011;7137;51.436;6.544;2023-03-01T03:49:05;9.50;;;7.17;;
14116;SDS011;7137;51.436;6.544;2023-03-01T03:52:08;8.73;;;6.07;;
14116;SDS011;7137;51.436;6.544;2023-03-01T03:55:13;9.27;;;7.03;;
14116;SDS011;7137;51.436;6.544;2023-03-01T03:58:19;9.73;;;6.80;;
14116;SDS011;7137;51.436;6.544;2023-03-01T04:01:23;8.77;;;6.83;;
14116;SDS011;7137;51.436;6.544;2023-03-01T04:04:24;9.23;;;7.03;;
14116;SDS011;7137;51.436;6.544;2023-03-01T04:07:27;8.43;;;6.97;;
14116;SDS011;7137;51.436;6.544;2023-03-01T04:10:29;9.97;;;7.17;;
14116;SDS011;7137;51.436;6.544;2023-03-01T04:13:32;10.63;;;7.37;;
14116;SDS011;7137;51.436;6.544;2023-03-01T04:16:33;10.97;;;8.13;;
14116;SDS011;7137;51.436;6.544;2023-03-01T04:19:35;9.63;;;7.70;;
14116;SDS011;7137;51.436;6.544;2023-03-01T04:22:39;11.53;;;7.40;;
14116;SDS011;7137;51.436;6.544;2023-03-01T04:25:41;10.60;;;7.47;;
14116;SDS011;7137;51.436;6.544;2023-03-01T04:28:46;9.90;;;7.30;;
14116;SDS011;7137;51.436;6.544;2023-03-01T04:31:49;9.60;;;7.57;;
14116;SDS011;7137;51.436;6.544;2023-03-01T04:34:50;9.80;;;7.30;;
14116;SDS011;7137;51.436;6.544;2023-03-01T04:37:54;10.50;;;8.60;;
14116;SDS011;7137;51.436;6.544;2023-03-01T04:40:55;10.40;;;7.80;;
14116;SDS011;7137;51.436;6.544;2023-03-01T04:43:57;10.63;;;7.83;;
14116;SDS011;7137;51.436;6.544;2023-03-01T04:47:00;10.50;;;7.80;;
14116;SDS011;7137;51.436;6.544;2023-03-01T04:50:01;9.20;;;7.30;;
14116;SDS011;7137;51.436;6.544;2023-03-01T04:53:05;9.73;;;7.37;;
14116;SDS011;7137;51.436;6.544;2023-03-01T04:56:06;9.10;;;7.17;;
14116;SDS011;7137;51.436;6.544;2023-03-01T04:59:08;9.80;;;7.27;;
14116;SDS011;7137;51.436;6.544;2023-03-01T05:02:12;9.67;;;7.23;;
14116;SDS011;7137;51.436;6.544;2023-03-01T05:05:14;9.87;;;7.07;;
14116;SDS011;7137;51.436;6.544;2023-03-01T05:08:17;10.83;;;7.80;;
14116;SDS011;7137;51.436;6.544;2023-03-01T05:11:20;9.70;;;7.63;;
14116;SDS011;7137;51.436;6.544;2023-03-01T05:14:22;10.27;;;7.10;;
14116;SDS011;7137;51.436;6.544;2023-03-01T05:17:23;10.90;;;7.30;;
14116;SDS011;7137;51.436;6.544;2023-03-01T05:20:25;10.87;;;7.40;;
14116;SDS011;7137;51.436;6.544;2023-03-01T05:23:28;9.67;;;7.70;;
14116;SDS011;7137;51.436;6.544;2023-03-01T05:26:30;10.50;;;8.30;;
14116;SDS011;7137;51.436;6.544;2023-03-01T05:29:32;11.90;;;7.87;;
14116;SDS011;7137;51.436;6.544;2023-03-01T05:32:34;10.23;;;7.87;;
14116;SDS011;7137;51.436;6.544;2023-03-01T05:35:36;11.83;;;8.07;;
14116;SDS011;7137;51.436;6.544;2023-03-01T05:38:39;12.83;;;8.00;;
14116;SDS011;7137;51.436;6.544;2023-03-01T05:41:41;12.03;;;7.67;;
14116;SDS011;7137;51.436;6.544;2023-03-01T05:44:42;10.43;;;8.40;;
14116;SDS011;7137;51.436;6.544;2023-03-01T05:47:45;12.00;;;7.67;;
14116;SDS011;7137;51.436;6.544;2023-03-01T05:50:47;12.53;;;8.40;;
14116;SDS011;7137;51.436;6.544;2023-03-01T05:53:50;11.27;;;8.17;;
14116;SDS011;7137;51.436;6.544;2023-03-01T05:56:52;12.60;;;8.60;;
14116;SDS011;7137;51.436;6.544;2023-03-01T05:59:53;11.73;;;8.33;;
14116;SDS011;7137;51.436;6.544;2023-03-01T06:02:55;11.33;;;8.20;;
14116;SDS011;7137;51.436;6.544;2023-03-01T06:05:58;13.10;;;8.43;;
14116;SDS011;7137;51.436;6.544;2023-03-01T06:09:01;13.00;;;8.40;;
14116;SDS011;7137;51.436;6.544;2023-03-01T06:12:02;11.67;;;8.43;;
14116;SDS011;7137;51.436;6.544;2023-03-01T06:15:05;11.17;;;8.27;;
14116;SDS011;7137;51.436;6.544;2023-03-01T06:18:09;12.97;;;8.83;;
14116;SDS011;7137;51.436;6.544;2023-03-01T06:21:11;11.83;;;8.60;;
14116;SDS011;7137;51.436;6.544;2023-03-01T06:24:14;12.63;;;8.23;;
14116;SDS011;7137;51.436;6.544;2023-03-01T06:27:15;12.63;;;8.63;;
14116;SDS011;7137;51.436;6.544;2023-03-01T06:30:17;12.73;;;8.70;;
14116;SDS011;7137;51.436;6.544;2023-03-01T06:33:20;11.07;;;8.83;;
14116;SDS011;7137;51.436;6.544;2023-03-01T06:36:24;11.90;;;9.17;;
14116;SDS011;7137;51.436;6.544;2023-03-01T06:39:28;13.07;;;8.80;;
14116;SDS011;7137;51.436;6.544;2023-03-01T06:42:31;13.33;;;9.33;;
14116;SDS011;7137;51.436;6.544;2023-03-01T06:45:32;12.23;;;8.77;;
14116;SDS011;7137;51.436;6.544;2023-03-01T06:48:34;15.43;;;9.33;;
14116;SDS011;7137;51.436;6.544;2023-03-01T06:51:36;14.27;;;9.10;;
14116;SDS011;7137;51.436;6.544;2023-03-01T06:54:39;13.13;;;8.10;;
14116;SDS011;7137;51.436;6.544;2023-03-01T06:57:40;11.53;;;8.10;;
14116;SDS011;7137;51.436;6.544;2023-03-01T07:00:42;11.47;;;7.70;;
14116;SDS011;7137;51.436;6.544;2023-03-01T07:03:44;12.70;;;8.23;;
14116;SDS011;7137;51.436;6.544;2023-03-01T07:06:46;12.77;;;8.57;;
14116;SDS011;7137;51.436;6.544;2023-03-01T07:09:55;11.07;;;8.73;;
14116;SDS011;7137;51.436;6.544;2023-03-01T07:12:57;12.13;;;9.13;;
14116;SDS011;7137;51.436;6.544;2023-03-01T07:15:59;11.90;;;8.13;;
14116;SDS011;7137;51.436;6.544;2023-03-01T07:19:01;11.27;;;8.10;;
14116;SDS011;7137;51.436;6.544;2023-03-01T07:22:02;10.33;;;7.87;;
14116;SDS011;7137;51.436;6.544;2023-03-01T07:25:09;13.93;;;9.00;;
14116;SDS011;7137;51.436;6.544;2023-03-01T07:28:11;13.27;;;9.00;;
14116;SDS011;7137;51.436;6.544;2023-03-01T07:31:12;14.43;;;9.77;;
14116;SDS011;7137;51.436;6.544;2023-03-01T07:34:15;12.63;;;10.00;;
14116;SDS011;7137;51.436;6.544;2023-03-01T07:37:16;13.13;;;8.97;;
14116;SDS011;7137;51.436;6.544;2023-03-01T07:40:19;13.77;;;9.27;;
14116;SDS011;7137;51.436;6.544;2023-03-01T07:43:21;13.23;;;9.37;;
14116;SDS011;7137;51.436;6.544;2023-03-01T07:46:23;13.10;;;9.53;;
14116;SDS011;7137;51.436;6.544;2023-03-01T07:49:24;14.80;;;9.80;;
14116;SDS011;7137;51.436;6.544;2023-03-01T07:52:27;12.70;;;9.17;;
14116;SDS011;7137;51.436;6.544;2023-03-01T07:55:30;10.57;;;8.80;;
14116;SDS011;7137;51.436;6.544;2023-03-01T07:58:33;12.50;;;9.67;;
14116;SDS011;7137;51.436;6.544;2023-03-01T08:01:35;11.63;;;8.90;;
14116;SDS011;7137;51.436;6.544;2023-03-01T08:04:37;11.23;;;8.37;;
14116;SDS011;7137;51.436;6.544;2023-03-01T08:07:38;11.30;;;8.47;;
14116;SDS011;7137;51.436;6.544;2023-03-01T08:10:41;10.30;;;8.00;;
14116;SDS011;7137;51.436;6.544;2023-03-01T08:13:43;11.47;;;7.63;;
14116;SDS011;7137;51.436;6.544;2023-03-01T08:16:44;10.27;;;7.13;;
14116;SDS011;7137;51.436;6.544;2023-03-01T08:19:46;10.30;;;7.30;;
14116;SDS011;7137;51.436;6.544;2023-03-01T08:22:47;12.53;;;8.10;;
14116;SDS011;7137;51.436;6.544;2023-03-01T08:25:50;13.20;;;7.63;;
14116;SDS011;7137;51.436;6.544;2023-03-01T08:28:52;10.83;;;6.57;;
14116;SDS011;7137;51.436;6.544;2023-03-01T08:31:54;10.80;;;7.23;;
14116;SDS011;7137;51.436;6.544;2023-03-01T08:34:56;10.03;;;7.73;;
14116;SDS011;7137;51.436;6.544;2023-03-01T08:37:57;10.60;;;6.77;;
14116;SDS011;7137;51.436;6.544;2023-03-01T08:41:01;12.43;;;7.30;;
14116;SDS011;7137;51.436;6.544;2023-03-01T08:44:03;10.03;;;7.17;;
14116;SDS011;7137;51.436;6.544;2023-03-01T08:47:05;13.47;;;7.20;;
14116;SDS011;7137;51.436;6.544;2023-03-01T08:50:07;11.73;;;7.43;;
14116;SDS011;7137;51.436;6.544;2023-03-01T08:53:09;11.97;;;8.00;;
14116;SDS011;7137;51.436;6.544;2023-03-01T08:56:12;10.00;;;7.70;;
14116;SDS011;7137;51.436;6.544;2023-03-01T08:59:15;11.30;;;7.53;;
14116;SDS011;7137;51.436;6.544;2023-03-01T09:02:17;12.00;;;7.60;;
14116;SDS011;7137;51.436;6.544;2023-03-01T09:05:20;11.67;;;7.17;;
14116;SDS011;7137;51.436;6.544;2023-03-01T09:08:22;10.37;;;8.03;;
14116;SDS011;7137;51.436;6.544;2023-03-01T09:11:24;11.40;;;7.87;;
14116;SDS011;7137;51.436;6.544;2023-03-01T09:14:26;11.30;;;7.70;;
14116;SDS011;7137;51.436;6.544;2023-03-01T09:17:28;10.67;;;7.80;;
14116;SDS011;7137;51.436;6.544;2023-03-01T09:20:30;10.27;;;7.63;;
14116;SDS011;7137;51.436;6.544;2023-03-01T09:23:33;12.40;;;7.80;;
14116;SDS011;7137;51.436;6.544;2023-03-01T09:26:37;10.73;;;7.23;;
14116;SDS011;7137;51.436;6.544;2023-03-01T09:29:39;10.97;;;7.33;;
14116;SDS011;7137;51.436;6.544;2023-03-01T09:32:40;9.20;;;7.13;;
14116;SDS011;7137;51.436;6.544;2023-03-01T09:35:44;9.97;;;7.87;;
14116;SDS011;7137;51.436;6.544;2023-03-01T09:38:48;10.60;;;7.63;;
14116;SDS011;7137;51.436;6.544;2023-03-01T09:41:53;9.97;;;7.37;;
14116;SDS011;7137;51.436;6.544;2023-03-01T09:45:03;10.40;;;7.20;;
14116;SDS011;7137;51.436;6.544;2023-03-01T09:48:08;11.23;;;7.77;;
14116;SDS011;7137;51.436;6.544;2023-03-01T09:51:17;10.27;;;7.10;;
14116;SDS011;7137;51.436;6.544;2023-03-01T09:54:27;11.13;;;7.57;;
14116;SDS011;7137;51.436;6.544;2023-03-01T09:57:33;10.93;;;7.70;;
14116;SDS011;7137;51.436;6.544;2023-03-01T10:00:41;10.63;;;7.80;;
14116;SDS011;7137;51.436;6.544;2023-03-01T10:03:44;10.63;;;7.70;;
14116;SDS011;7137;51.436;6.544;2023-03-01T10:07:05;10.70;;;7.67;;
14116;SDS011;7137;51.436;6.544;2023-03-01T10:10:21;10.60;;;7.50;;
14116;SDS011;7137;51.436;6.544;2023-03-01T10:13:31;9.93;;;7.10;;
14116;SDS011;7137;51.436;6.544;2023-03-01T10:16:40;10.80;;;7.90;;
14116;SDS011;7137;51.436;6.544;2023-03-01T10:19:48;10.50;;;7.40;;
14116;SDS011;7137;51.436;6.544;2023-03-01T10:22:51;10.00;;;7.83;;
14116;SDS011;7137;51.436;6.544;2023-03-01T10:25:57;10.20;;;7.70;;
14116;SDS011;7137;51.436;6.544;2023-03-01T10:29:12;11.23;;;8.10;;
14116;SDS011;7137;51.436;6.544;2023-03-01T10:32:14;10.87;;;8.10;;
14116;SDS011;7137;51.436;6.544;2023-03-01T10:35:18;9.90;;;7.13;;
14116;SDS011;7137;51.436;6.544;2023-03-01T10:38:21;10.00;;;6.80;;
14116;SDS011;7137;51.436;6.544;2023-03-01T10:41:23;9.43;;;7.13;;
14116;SDS011;7137;51.436;6.544;2023-03-01T10:44:40;9.37;;;5.70;;
14116;SDS011;7137;51.436;6.544;2023-03-01T10:47:44;10.13;;;7.37;;
14116;SDS011;7137;51.436;6.544;2023-03-01T10:50:46;9.97;;;7.20;;
14116;SDS011;7137;51.436;6.544;2023-03-01T10:53:50;9.03;;;6.87;;
14116;SDS011;7137;51.436;6.544;2023-03-01T10:56:52;9.90;;;6.13;;
14116;SDS011;7137;51.436;6.544;2023-03-01T11:00:17;11.27;;;7.10;;
14116;SDS011;7137;51.436;6.544;2023-03-01T11:03:23;10.70;;;7.27;;
14116;SDS011;7137;51.436;6.544;2023-03-01T11:06:26;10.40;;;7.53;;
14116;SDS011;7137;51.436;6.544;2023-03-01T11:09:30;12.70;;;7.50;;
14116;SDS011;7137;51.436;6.544;2023-03-01T11:12:37;12.67;;;6.80;;
14116;SDS011;7137;51.436;6.544;2023-03-01T11:15:40;10.37;;;6.67;;
14116;SDS011;7137;51.436;6.544;2023-03-01T11:18:42;9.20;;;6.17;;
14116;SDS011;7137;51.436;6.544;2023-03-01T11:21:59;8.40;;;5.60;;
14116;SDS011;7137;51.436;6.544;2023-03-01T11:25:04;10.33;;;6.87;;
14116;SDS011;7137;51.436;6.544;2023-03-01T11:28:07;9.03;;;5.30;;
14116;SDS011;7137;51.436;6.544;2023-03-01T11:31:16;9.10;;;6.50;;
14116;SDS011;7137;51.436;6.544;2023-03-01T11:34:20;9.67;;;6.50;;
14116;SDS011;7137;51.436;6.544;2023-03-01T11:37:40;10.20;;;6.53;;
14116;SDS011;7137;51.436;6.544;2023-03-01T11:40:53;9.47;;;6.47;;
14116;SDS011;7137;51.436;6.544;2023-03-01T11:44:00;9.70;;;6.07;;
14116;SDS011;7137;51.436;6.544;2023-03-01T11:47:10;9.10;;;6.57;;
14116;SDS011;7137;51.436;6.544;2023-03-01T11:50:24;9.63;;;5.83;;
14116;SDS011;7137;51.436;6.544;2023-03-01T11:53:32;9.77;;;5.67;;
14116;SDS011;7137;51.436;6.544;2023-03-01T11:56:53;10.50;;;6.70;;
14116;SDS011;7137;51.436;6.544;2023-03-01T12:00:11;11.27;;;6.80;;
14116;SDS011;7137;51.436;6.544;2023-03-01T12:03:33;12.10;;;6.90;;
14116;SDS011;7137;51.436;6.544;2023-03-01T12:06:50;11.13;;;6.30;;
14116;SDS011;7137;51.436;6.544;2023-03-01T12:10:04;10.23;;;6.93;;
14116;SDS011;7137;51.436;6.544;2023-03-01T12:16:50;9.67;;;6.40;;
14116;SDS011;7137;51.436;6.544;2023-03-01T12:20:14;13.17;;;6.57;;
14116;SDS011;7137;51.436;6.544;2023-03-01T12:23:35;10.43;;;6.33;;
14116;SDS011;7137;51.436;6.544;2023-03-01T12:27:07;9.90;;;6.30;;
14116;SDS011;7137;51.436;6.544;2023-03-01T12:30:25;9.00;;;6.37;;
14116;SDS011;7137;51.436;6.544;2023-03-01T12:33:36;10.23;;;6.53;;
14116;SDS011;7137;51.436;6.544;2023-03-01T12:36:53;11.20;;;6.10;;
14116;SDS011;7137;51.436;6.544;2023-03-01T12:40:20;10.80;;;6.43;;
14116;SDS011;7137;51.436;6.544;2023-03-01T12:43:36;9.87;;;6.77;;
14116;SDS011;7137;51.436;6.544;2023-03-01T12:46:47;9.63;;;6.97;;
14116;SDS011;7137;51.436;6.544;2023-03-01T12:50:02;10.80;;;6.43;;
14116;SDS011;7137;51.436;6.544;2023-03-01T12:53:08;11.27;;;6.70;;
14116;SDS011;7137;51.436;6.544;2023-03-01T12:56:23;9.97;;;5.93;;
14116;SDS011;7137;51.436;6.544;2023-03-01T12:59:28;11.87;;;6.13;;
14116;SDS011;7137;51.436;6.544;2023-03-01T13:02:39;10.07;;;6.70;;
14116;SDS011;7137;51.436;6.544;2023-03-01T13:05:50;7.20;;;4.63;;
14116;SDS011;7137;51.436;6.544;2023-03-01T13:09:04;12.27;;;6.97;;
14116;SDS011;7137;51.436;6.544;2023-03-01T13:15:46;7.00;;;5.13;;
14116;SDS011;7137;51.436;6.544;2023-03-01T13:18:49;10.13;;;5.60;;
14116;SDS011;7137;51.436;6.544;2023-03-01T13:21:51;7.70;;;5.47;;
14116;SDS011;7137;51.436;6.544;2023-03-01T13:25:02;7.83;;;5.17;;
14116;SDS011;7137;51.436;6.544;2023-03-01T13:35:07;9.33;;;5.70;;
14116;SDS011;7137;51.436;6.544;2023-03-01T13:38:45;11.03;;;5.73;;
14116;SDS011;7137;51.436;6.544;2023-03-01T13:41:50;8.47;;;6.07;;
14116;SDS011;7137;51.436;6.544;2023-03-01T13:44:52;10.57;;;6.27;;
14116;SDS011;7137;51.436;6.544;2023-03-01T13:47:55;12.73;;;6.40;;
14116;SDS011;7137;51.436;6.544;2023-03-01T13:50:59;10.70;;;6.00;;
14116;SDS011;7137;51.436;6.544;2023-03-01T13:54:03;10.63;;;6.23;;
14116;SDS011;7137;51.436;6.544;2023-03-01T13:57:12;8.40;;;5.20;;
14116;SDS011;7137;51.436;6.544;2023-03-01T14:00:25;8.80;;;5.33;;
14116;SDS011;7137;51.436;6.544;2023-03-01T14:03:28;11.93;;;6.20;;
14116;SDS011;7137;51.436;6.544;2023-03-01T14:06:32;9.80;;;6.40;;
14116;SDS011;7137;51.436;6.544;2023-03-01T14:09:36;8.80;;;6.00;;
14116;SDS011;7137;51.436;6.544;2023-03-01T14:12:43;9.63;;;6.30;;
14116;SDS011;7137;51.436;6.544;2023-03-01T14:15:58;10.70;;;6.10;;
14116;SDS011;7137;51.436;6.544;2023-03-01T14:19:15;8.53;;;6.33;;
14116;SDS011;7137;51.436;6.544;2023-03-01T14:22:21;9.00;;;6.30;;
14116;SDS011;7137;51.436;6.544;2023-03-01T14:25:25;9.73;;;6.00;;
14116;SDS011;7137;51.436;6.544;2023-03-01T14:28:31;10.33;;;6.00;;
14116;SDS011;7137;51.436;6.544;2023-03-01T14:31:36;8.33;;;5.50;;
14116;SDS011;7137;51.436;6.544;2023-03-01T14:34:42;10.20;;;6.40;;
14116;SDS011;7137;51.436;6.544;2023-03-01T14:37:45;9.47;;;6.13;;
14116;SDS011;7137;51.436;6.544;2023-03-01T14:40:53;9.37;;;6.00;;
14116;SDS011;7137;51.436;6.544;2023-03-01T14:44:00;9.40;;;6.00;;
14116;SDS011;7137;51.436;6.544;2023-03-01T14:47:03;9.67;;;6.33;;
14116;SDS011;7137;51.436;6.544;2023-03-01T14:50:07;8.93;;;6.17;;
14116;SDS011;7137;51.436;6.544;2023-03-01T14:53:14;9.00;;;6.43;;
14116;SDS011;7137;51.436;6.544;2023-03-01T14:56:18;9.87;;;7.23;;
14116;SDS011;7137;51.436;6.544;2023-03-01T14:59:22;9.63;;;5.63;;
14116;SDS011;7137;51.436;6.544;2023-03-01T15:02:25;11.57;;;6.47;;
14116;SDS011;7137;51.436;6.544;2023-03-01T15:05:29;11.43;;;7.10;;
14116;SDS011;7137;51.436;6.544;2023-03-01T15:08:32;14.37;;;6.53;;
14116;SDS011;7137;51.436;6.544;2023-03-01T15:11:34;10.57;;;6.17;;
14116;SDS011;7137;51.436;6.544;2023-03-01T15:14:41;9.80;;;7.00;;
14116;SDS011;7137;51.436;6.544;2023-03-01T15:17:44;11.20;;;6.63;;
14116;SDS011;7137;51.436;6.544;2023-03-01T15:20:51;11.33;;;7.00;;
14116;SDS011;7137;51.436;6.544;2023-03-01T15:23:54;9.93;;;6.87;;
14116;SDS011;7137;51.436;6.544;2023-03-01T15:26:58;10.00;;;7.37;;
14116;SDS011;7137;51.436;6.544;2023-03-01T15:30:13;10.20;;;7.20;;
14116;SDS011;7137;51.436;6.544;2023-03-01T15:33:25;10.30;;;7.07;;
14116;SDS011;7137;51.436;6.544;2023-03-01T15:36:37;11.33;;;7.50;;
14116;SDS011;7137;51.436;6.544;2023-03-01T15:39:42;10.47;;;7.30;;
14116;SDS011;7137;51.436;6.544;2023-03-01T15:42:54;10.17;;;6.80;;
14116;SDS011;7137;51.436;6.544;2023-03-01T15:45:57;12.63;;;7.70;;
14116;SDS011;7137;51.436;6.544;2023-03-01T15:49:00;12.13;;;7.67;;
14116;SDS011;7137;51.436;6.544;2023-03-01T15:52:03;11.57;;;7.03;;
14116;SDS011;7137;51.436;6.544;2023-03-01T15:55:06;11.37;;;6.83;;
14116;SDS011;7137;51.436;6.544;2023-03-01T15:58:17;9.10;;;6.47;;
14116;SDS011;7137;51.436;6.544;2023-03-01T16:01:21;11.87;;;6.90;;
14116;SDS011;7137;51.436;6.544;2023-03-01T16:04:23;9.63;;;5.93;;
14116;SDS011;7137;51.436;6.544;2023-03-01T16:07:25;9.30;;;6.47;;
14116;SDS011;7137;51.436;6.544;2023-03-01T16:10:28;9.90;;;6.37;;
14116;SDS011;7137;51.436;6.544;2023-03-01T16:13:29;11.13;;;6.33;;
14116;SDS011;7137;51.436;6.544;2023-03-01T16:16:33;11.00;;;6.30;;
14116;SDS011;7137;51.436;6.544;2023-03-01T16:19:35;9.03;;;6.10;;
14116;SDS011;7137;51.436;6.544;2023-03-01T16:22:37;7.83;;;5.23;;
14116;SDS011;7137;51.436;6.544;2023-03-01T16:25:39;9.60;;;6.53;;
14116;SDS011;7137;51.436;6.544;2023-03-01T16:28:40;8.87;;;5.87;;
14116;SDS011;7137;51.436;6.544;2023-03-01T16:31:44;12.37;;;6.30;;
14116;SDS011;7137;51.436;6.544;2023-03-01T16:34:45;9.33;;;5.77;;
14116;SDS011;7137;51.436;6.544;2023-03-01T16:37:49;9.67;;;5.90;;
14116;SDS011;7137;51.436;6.544;2023-03-01T16:40:52;9.63;;;6.43;;
14116;SDS011;7137;51.436;6.544;2023-03-01T16:43:54;11.03;;;6.70;;
14116;SDS011;7137;51.436;6.544;2023-03-01T16:46:57;9.77;;;6.70;;
14116;SDS011;7137;51.436;6.544;2023-03-01T16:49:58;11.43;;;7.10;;
14116;SDS011;7137;51.436;6.544;2023-03-01T16:53:00;8.50;;;6.80;;
14116;SDS011;7137;51.436;6.544;2023-03-01T16:56:02;12.77;;;7.00;;
14116;SDS011;7137;51.436;6.544;2023-03-01T16:59:06;8.47;;;6.23;;
14116;SDS011;7137;51.436;6.544;2023-03-01T17:02:09;10.40;;;7.07;;
14116;SDS011;7137;51.436;6.544;2023-03-01T17:05:12;11.23;;;7.03;;
14116;SDS011;7137;51.436;6.544;2023-03-01T17:08:14;10.10;;;6.73;;
14116;SDS011;7137;51.436;6.544;2023-03-01T17:11:18;10.60;;;6.90;;
14116;SDS011;7137;51.436;6.544;2023-03-01T17:14:20;9.63;;;7.30;;
14116;SDS011;7137;51.436;6.544;2023-03-01T17:17:23;11.37;;;6.70;;
14116;SDS011;7137;51.436;6.544;2023-03-01T17:20:25;10.07;;;7.17;;
14116;SDS011;7137;51.436;6.544;2023-03-01T17:23:27;9.70;;;7.17;;
14116;SDS011;7137;51.436;6.544;2023-03-01T17:26:29;10.20;;;7.23;;
14116;SDS011;7137;51.436;6.544;2023-03-01T17:29:31;11.60;;;7.10;;
14116;SDS011;7137;51.436;6.544;2023-03-01T17:32:35;10.47;;;6.93;;
14116;SDS011;7137;51.436;6.544;2023-03-01T17:35:37;10.53;;;6.90;;
14116;SDS011;7137;51.436;6.544;2023-03-01T17:38:38;10.40;;;6.80;;
14116;SDS011;7137;51.436;6.544;2023-03-01T17:41:40;11.00;;;6.77;;
14116;SDS011;7137;51.436;6.544;2023-03-01T17:44:42;11.20;;;6.97;;
14116;SDS011;7137;51.436;6.544;2023-03-01T17:47:45;11.20;;;6.57;;
14116;SDS011;7137;51.436;6.544;2023-03-01T17:50:46;8.30;;;6.60;;
14116;SDS011;7137;51.436;6.544;2023-03-01T17:53:48;9.17;;;6.27;;
14116;SDS011;7137;51.436;6.544;2023-03-01T17:56:49;11.57;;;7.37;;
14116;SDS011;7137;51.436;6.544;2023-03-01T17:59:51;9.87;;;6.93;;
14116;SDS011;7137;51.436;6.544;2023-03-01T18:02:54;10.07;;;6.43;;
14116;SDS011;7137;51.436;6.544;2023-03-01T18:05:56;9.23;;;6.20;;
14116;SDS011;7137;51.436;6.544;2023-03-01T18:08:57;10.13;;;6.73;;
14116;SDS011;7137;51.436;6.544;2023-03-01T18:11:59;11.53;;;6.67;;
14116;SDS011;7137;51.436;6.544;2023-03-01T18:15:00;11.10;;;6.17;;
14116;SDS011;7137;51.436;6.544;2023-03-01T18:18:03;9.73;;;6.43;;
14116;SDS011;7137;51.436;6.544;2023-03-01T18:21:05;9.70;;;6.20;;
14116;SDS011;7137;51.436;6.544;2023-03-01T18:24:07;9.23;;;6.20;;
14116;SDS011;7137;51.436;6.544;2023-03-01T18:27:08;9.93;;;6.23;;
14116;SDS011;7137;51.436;6.544;2023-03-01T18:30:11;11.27;;;6.63;;
14116;SDS011;7137;51.436;6.544;2023-03-01T18:33:15;10.43;;;6.90;;
14116;SDS011;7137;51.436;6.544;2023-03-01T18:36:19;10.23;;;6.87;;
14116;SDS011;7137;51.436;6.544;2023-03-01T18:39:22;10.70;;;6.47;;
14116;SDS011;7137;51.436;6.544;2023-03-01T18:42:24;8.33;;;6.00;;
14116;SDS011;7137;51.436;6.544;2023-03-01T18:45:26;11.13;;;6.90;;
14116;SDS011;7137;51.436;6.544;2023-03-01T18:48:29;10.87;;;6.13;;
14116;SDS011;7137;51.436;6.544;2023-03-01T18:51:31;11.17;;;6.93;;
14116;SDS011;7137;51.436;6.544;2023-03-01T18:54:34;11.57;;;6.87;;
14116;SDS011;7137;51.436;6.544;2023-03-01T18:57:35;10.93;;;6.67;;